sensor_id;sensor_type;location;lat;lon;timestamp;P1;durP1;ratioP1;P2;durP2;ratioP2
56136;SDS011;42008;52.934;5.884;2023-02-28T00:00:49;17.30;;;5.33;;
56136;SDS011;42008;52.934;5.884;2023-02-28T00:03:14;15.73;;;5.50;;
56136;SDS011;42008;52.934;5.884;2023-02-28T00:05:40;16.13;;;5.50;;
56136;SDS011;42008;52.934;5.884;2023-02-28T00:08:06;16.93;;;5.37;;
56136;SDS011;42008;52.934;5.884;2023-02-28T00:10:32;18.67;;;5.57;;
56136;SDS011;42008;52.934;5.884;2023-02-28T00:13:04;14.33;;;5.20;;
56136;SDS011;42008;52.934;5.884;2023-02-28T00:15:31;13.80;;;4.97;;
56136;SDS011;42008;52.934;5.884;2023-02-28T00:17:58;10.57;;;5.13;;
56136;SDS011;42008;52.934;5.884;2023-02-28T00:20:24;13.20;;;5.37;;
56136;SDS011;42008;52.934;5.884;2023-02-28T00:22:50;16.63;;;5.60;;
56136;SDS011;42008;52.934;5.884;2023-02-28T00:25:18;10.37;;;4.47;;
56136;SDS011;42008;52.934;5.884;2023-02-28T00:27:46;12.73;;;4.80;;
56136;SDS011;42008;52.934;5.884;2023-02-28T00:30:14;11.13;;;4.93;;
56136;SDS011;42008;52.934;5.884;2023-02-28T00:32:44;14.38;;;4.93;;
56136;SDS011;42008;52.934;5.884;2023-02-28T00:35:10;12.47;;;4.83;;
56136;SDS011;42008;52.934;5.884;2023-02-28T00:37:36;10.57;;;4.60;;
56136;SDS011;42008;52.934;5.884;2023-02-28T00:40:03;15.10;;;4.73;;
56136;SDS011;42008;52.934;5.884;2023-02-28T00:42:35;9.90;;;4.70;;
56136;SDS011;42008;52.934;5.884;2023-02-28T00:45:01;14.73;;;4.97;;
56136;SDS011;42008;52.934;5.884;2023-02-28T00:47:29;13.20;;;5.77;;
56136;SDS011;42008;52.934;5.884;2023-02-28T00:49:55;13.57;;;4.80;;
56136;SDS011;42008;52.934;5.884;2023-02-28T00:52:21;13.77;;;5.03;;
56136;SDS011;42008;52.934;5.884;2023-02-28T00:54:46;14.13;;;4.77;;
56136;SDS011;42008;52.934;5.884;2023-02-28T00:57:12;16.20;;;5.50;;
56136;SDS011;42008;52.934;5.884;2023-02-28T00:59:37;10.93;;;5.20;;
56136;SDS011;42008;52.934;5.884;2023-02-28T01:02:03;19.23;;;5.73;;
56136;SDS011;42008;52.934;5.884;2023-02-28T01:04:28;15.77;;;5.73;;
56136;SDS011;42008;52.934;5.884;2023-02-28T01:06:54;15.40;;;6.03;;
56136;SDS011;42008;52.934;5.884;2023-02-28T01:09:20;11.30;;;5.30;;
56136;SDS011;42008;52.934;5.884;2023-02-28T01:11:45;10.83;;;5.60;;
56136;SDS011;42008;52.934;5.884;2023-02-28T01:14:12;17.60;;;5.90;;
56136;SDS011;42008;52.934;5.884;2023-02-28T01:16:39;12.63;;;5.40;;
56136;SDS011;42008;52.934;5.884;2023-02-28T01:19:05;17.77;;;5.63;;
56136;SDS011;42008;52.934;5.884;2023-02-28T01:21:31;11.47;;;5.30;;
56136;SDS011;42008;52.934;5.884;2023-02-28T01:23:57;15.43;;;5.63;;
56136;SDS011;42008;52.934;5.884;2023-02-28T01:26:23;20.57;;;5.70;;
56136;SDS011;42008;52.934;5.884;2023-02-28T01:28:49;15.80;;;5.07;;
56136;SDS011;42008;52.934;5.884;2023-02-28T01:31:16;15.93;;;5.77;;
56136;SDS011;42008;52.934;5.884;2023-02-28T01:33:43;17.17;;;6.20;;
56136;SDS011;42008;52.934;5.884;2023-02-28T01:36:10;13.80;;;5.57;;
56136;SDS011;42008;52.934;5.884;2023-02-28T01:38:38;12.00;;;5.63;;
56136;SDS011;42008;52.934;5.884;2023-02-28T01:41:04;10.50;;;5.23;;
56136;SDS011;42008;52.934;5.884;2023-02-28T01:46:08;15.53;;;5.53;;
56136;SDS011;42008;52.934;5.884;2023-02-28T01:48:36;17.17;;;6.00;;
56136;SDS011;42008;52.934;5.884;2023-02-28T01:51:06;14.07;;;6.20;;
56136;SDS011;42008;52.934;5.884;2023-02-28T01:53:37;16.50;;;5.90;;
56136;SDS011;42008;52.934;5.884;2023-02-28T01:56:08;16.40;;;6.57;;
56136;SDS011;42008;52.934;5.884;2023-02-28T01:58:37;17.50;;;5.70;;
56136;SDS011;42008;52.934;5.884;2023-02-28T02:01:03;12.57;;;5.90;;
56136;SDS011;42008;52.934;5.884;2023-02-28T02:03:29;15.70;;;5.50;;
56136;SDS011;42008;52.934;5.884;2023-02-28T02:05:56;19.90;;;6.20;;
56136;SDS011;42008;52.934;5.884;2023-02-28T02:08:25;18.03;;;6.10;;
56136;SDS011;42008;52.934;5.884;2023-02-28T02:10:57;8.88;;;4.75;;
56136;SDS011;42008;52.934;5.884;2023-02-28T02:24:15;14.23;;;5.40;;
56136;SDS011;42008;52.934;5.884;2023-02-28T02:27:02;17.93;;;6.33;;
56136;SDS011;42008;52.934;5.884;2023-02-28T02:32:27;11.23;;;5.60;;
56136;SDS011;42008;52.934;5.884;2023-02-28T02:35:13;19.83;;;6.03;;
56136;SDS011;42008;52.934;5.884;2023-02-28T02:40:47;20.17;;;6.60;;
56136;SDS011;42008;52.934;5.884;2023-02-28T02:43:25;21.27;;;6.87;;
56136;SDS011;42008;52.934;5.884;2023-02-28T02:46:02;16.40;;;5.73;;
56136;SDS011;42008;52.934;5.884;2023-02-28T02:48:36;23.33;;;6.90;;
56136;SDS011;42008;52.934;5.884;2023-02-28T02:51:07;17.93;;;6.70;;
56136;SDS011;42008;52.934;5.884;2023-02-28T02:53:38;15.07;;;6.88;;
56136;SDS011;42008;52.934;5.884;2023-02-28T02:56:08;17.27;;;7.00;;
56136;SDS011;42008;52.934;5.884;2023-02-28T02:58:35;17.43;;;7.27;;
56136;SDS011;42008;52.934;5.884;2023-02-28T03:01:07;19.67;;;7.17;;
56136;SDS011;42008;52.934;5.884;2023-02-28T03:03:37;21.47;;;8.67;;
56136;SDS011;42008;52.934;5.884;2023-02-28T03:06:03;14.20;;;6.70;;
56136;SDS011;42008;52.934;5.884;2023-02-28T03:08:33;23.73;;;7.27;;
56136;SDS011;42008;52.934;5.884;2023-02-28T03:11:02;19.53;;;7.90;;
56136;SDS011;42008;52.934;5.884;2023-02-28T03:24:44;16.53;;;6.83;;
56136;SDS011;42008;52.934;5.884;2023-02-28T03:27:24;13.00;;;6.40;;
56136;SDS011;42008;52.934;5.884;2023-02-28T03:32:57;14.17;;;6.13;;
56136;SDS011;42008;52.934;5.884;2023-02-28T03:35:25;15.00;;;7.00;;
56136;SDS011;42008;52.934;5.884;2023-02-28T03:40:48;14.83;;;6.87;;
56136;SDS011;42008;52.934;5.884;2023-02-28T03:43:20;16.30;;;7.30;;
56136;SDS011;42008;52.934;5.884;2023-02-28T03:45:51;13.73;;;8.20;;
56136;SDS011;42008;52.934;5.884;2023-02-28T03:48:26;17.83;;;7.40;;
56136;SDS011;42008;52.934;5.884;2023-02-28T03:51:00;14.50;;;7.22;;
56136;SDS011;42008;52.934;5.884;2023-02-28T03:53:37;20.13;;;8.47;;
56136;SDS011;42008;52.934;5.884;2023-02-28T03:56:11;25.60;;;8.27;;
56136;SDS011;42008;52.934;5.884;2023-02-28T03:59:04;18.03;;;8.27;;
56136;SDS011;42008;52.934;5.884;2023-02-28T04:01:50;22.77;;;9.70;;
56136;SDS011;42008;52.934;5.884;2023-02-28T04:04:17;24.43;;;8.60;;
56136;SDS011;42008;52.934;5.884;2023-02-28T04:06:43;26.17;;;9.53;;
56136;SDS011;42008;52.934;5.884;2023-02-28T04:09:09;21.80;;;9.33;;
56136;SDS011;42008;52.934;5.884;2023-02-28T04:11:38;23.70;;;9.70;;
56136;SDS011;42008;52.934;5.884;2023-02-28T04:14:06;24.17;;;9.87;;
56136;SDS011;42008;52.934;5.884;2023-02-28T04:16:33;19.47;;;10.30;;
56136;SDS011;42008;52.934;5.884;2023-02-28T04:19:02;27.17;;;12.53;;
56136;SDS011;42008;52.934;5.884;2023-02-28T04:24:04;24.17;;;11.20;;
56136;SDS011;42008;52.934;5.884;2023-02-28T04:26:33;25.47;;;11.20;;
56136;SDS011;42008;52.934;5.884;2023-02-28T04:29:00;22.73;;;11.13;;
56136;SDS011;42008;52.934;5.884;2023-02-28T04:31:27;22.53;;;11.93;;
56136;SDS011;42008;52.934;5.884;2023-02-28T04:33:53;18.40;;;9.60;;
56136;SDS011;42008;52.934;5.884;2023-02-28T04:36:19;17.20;;;9.40;;
56136;SDS011;42008;52.934;5.884;2023-02-28T04:38:44;15.47;;;9.47;;
56136;SDS011;42008;52.934;5.884;2023-02-28T04:41:11;17.93;;;8.60;;
56136;SDS011;42008;52.934;5.884;2023-02-28T04:43:37;17.13;;;9.57;;
56136;SDS011;42008;52.934;5.884;2023-02-28T04:46:03;18.10;;;9.77;;
56136;SDS011;42008;52.934;5.884;2023-02-28T04:48:30;17.33;;;8.97;;
56136;SDS011;42008;52.934;5.884;2023-02-28T04:51:04;16.17;;;8.70;;
56136;SDS011;42008;52.934;5.884;2023-02-28T04:53:30;13.07;;;8.88;;
56136;SDS011;42008;52.934;5.884;2023-02-28T04:55:56;13.23;;;8.77;;
56136;SDS011;42008;52.934;5.884;2023-02-28T04:58:22;19.43;;;8.77;;
56136;SDS011;42008;52.934;5.884;2023-02-28T05:00:51;14.33;;;8.70;;
56136;SDS011;42008;52.934;5.884;2023-02-28T05:03:17;14.77;;;8.10;;
56136;SDS011;42008;52.934;5.884;2023-02-28T05:05:43;13.17;;;7.73;;
56136;SDS011;42008;52.934;5.884;2023-02-28T05:08:08;12.53;;;7.67;;
56136;SDS011;42008;52.934;5.884;2023-02-28T05:10:34;18.00;;;9.07;;
56136;SDS011;42008;52.934;5.884;2023-02-28T05:13:00;15.70;;;10.00;;
56136;SDS011;42008;52.934;5.884;2023-02-28T05:15:26;22.33;;;12.63;;
56136;SDS011;42008;52.934;5.884;2023-02-28T05:17:51;21.50;;;13.67;;
56136;SDS011;42008;52.934;5.884;2023-02-28T05:20:17;23.17;;;13.80;;
56136;SDS011;42008;52.934;5.884;2023-02-28T05:22:43;23.10;;;14.03;;
56136;SDS011;42008;52.934;5.884;2023-02-28T05:25:10;17.97;;;13.00;;
56136;SDS011;42008;52.934;5.884;2023-02-28T05:27:40;23.90;;;12.93;;
56136;SDS011;42008;52.934;5.884;2023-02-28T05:30:06;25.30;;;14.47;;
56136;SDS011;42008;52.934;5.884;2023-02-28T05:32:35;24.03;;;13.67;;
56136;SDS011;42008;52.934;5.884;2023-02-28T05:35:01;20.30;;;14.03;;
56136;SDS011;42008;52.934;5.884;2023-02-28T05:37:27;22.27;;;14.27;;
56136;SDS011;42008;52.934;5.884;2023-02-28T05:39:52;20.40;;;13.93;;
56136;SDS011;42008;52.934;5.884;2023-02-28T05:42:18;24.37;;;14.30;;
56136;SDS011;42008;52.934;5.884;2023-02-28T05:44:44;25.83;;;14.87;;
56136;SDS011;42008;52.934;5.884;2023-02-28T05:47:09;20.23;;;14.13;;
56136;SDS011;42008;52.934;5.884;2023-02-28T05:49:35;22.07;;;15.37;;
56136;SDS011;42008;52.934;5.884;2023-02-28T05:52:00;25.23;;;15.63;;
56136;SDS011;42008;52.934;5.884;2023-02-28T05:54:26;20.80;;;14.83;;
56136;SDS011;42008;52.934;5.884;2023-02-28T05:56:52;20.60;;;13.63;;
56136;SDS011;42008;52.934;5.884;2023-02-28T05:59:17;21.17;;;14.33;;
56136;SDS011;42008;52.934;5.884;2023-02-28T06:01:44;22.83;;;15.27;;
56136;SDS011;42008;52.934;5.884;2023-02-28T06:04:13;20.67;;;14.20;;
56136;SDS011;42008;52.934;5.884;2023-02-28T06:06:42;26.53;;;14.10;;
56136;SDS011;42008;52.934;5.884;2023-02-28T06:09:08;24.37;;;14.60;;
56136;SDS011;42008;52.934;5.884;2023-02-28T06:11:34;20.83;;;14.70;;
56136;SDS011;42008;52.934;5.884;2023-02-28T06:14:00;25.47;;;14.80;;
56136;SDS011;42008;52.934;5.884;2023-02-28T06:16:26;23.80;;;15.47;;
56136;SDS011;42008;52.934;5.884;2023-02-28T06:18:52;20.70;;;14.90;;
56136;SDS011;42008;52.934;5.884;2023-02-28T06:21:21;24.30;;;16.13;;
56136;SDS011;42008;52.934;5.884;2023-02-28T06:23:47;24.60;;;15.87;;
56136;SDS011;42008;52.934;5.884;2023-02-28T06:26:13;25.50;;;16.30;;
56136;SDS011;42008;52.934;5.884;2023-02-28T06:28:38;29.90;;;17.33;;
56136;SDS011;42008;52.934;5.884;2023-02-28T06:31:08;29.03;;;17.77;;
56136;SDS011;42008;52.934;5.884;2023-02-28T06:33:35;31.50;;;18.83;;
56136;SDS011;42008;52.934;5.884;2023-02-28T06:36:02;29.97;;;18.77;;
56136;SDS011;42008;52.934;5.884;2023-02-28T06:38:29;28.20;;;18.40;;
56136;SDS011;42008;52.934;5.884;2023-02-28T06:40:56;32.83;;;19.43;;
56136;SDS011;42008;52.934;5.884;2023-02-28T06:43:24;32.57;;;20.37;;
56136;SDS011;42008;52.934;5.884;2023-02-28T06:45:50;32.13;;;19.63;;
56136;SDS011;42008;52.934;5.884;2023-02-28T06:48:18;29.37;;;18.87;;
56136;SDS011;42008;52.934;5.884;2023-02-28T06:50:44;30.37;;;20.03;;
56136;SDS011;42008;52.934;5.884;2023-02-28T06:53:09;28.83;;;18.97;;
56136;SDS011;42008;52.934;5.884;2023-02-28T06:55:37;27.37;;;17.37;;
56136;SDS011;42008;52.934;5.884;2023-02-28T06:58:03;32.73;;;20.87;;
56136;SDS011;42008;52.934;5.884;2023-02-28T07:00:38;28.80;;;18.57;;
56136;SDS011;42008;52.934;5.884;2023-02-28T07:03:04;29.97;;;18.30;;
56136;SDS011;42008;52.934;5.884;2023-02-28T07:05:29;32.53;;;19.20;;
56136;SDS011;42008;52.934;5.884;2023-02-28T07:07:55;27.60;;;19.57;;
56136;SDS011;42008;52.934;5.884;2023-02-28T07:10:22;28.87;;;19.63;;
56136;SDS011;42008;52.934;5.884;2023-02-28T07:12:47;29.67;;;20.70;;
56136;SDS011;42008;52.934;5.884;2023-02-28T07:15:13;30.73;;;19.63;;
56136;SDS011;42008;52.934;5.884;2023-02-28T07:17:38;34.67;;;21.77;;
56136;SDS011;42008;52.934;5.884;2023-02-28T07:20:04;35.37;;;22.67;;
56136;SDS011;42008;52.934;5.884;2023-02-28T07:22:30;33.93;;;21.73;;
56136;SDS011;42008;52.934;5.884;2023-02-28T07:24:56;33.00;;;22.40;;
56136;SDS011;42008;52.934;5.884;2023-02-28T07:27:21;33.40;;;22.00;;
56136;SDS011;42008;52.934;5.884;2023-02-28T07:29:50;37.70;;;24.00;;
56136;SDS011;42008;52.934;5.884;2023-02-28T07:32:17;34.00;;;22.50;;
56136;SDS011;42008;52.934;5.884;2023-02-28T07:34:43;37.47;;;23.87;;
56136;SDS011;42008;52.934;5.884;2023-02-28T07:37:09;34.00;;;22.00;;
56136;SDS011;42008;52.934;5.884;2023-02-28T07:39:35;33.20;;;22.13;;
56136;SDS011;42008;52.934;5.884;2023-02-28T07:42:03;33.30;;;22.60;;
56136;SDS011;42008;52.934;5.884;2023-02-28T07:44:29;35.00;;;23.40;;
56136;SDS011;42008;52.934;5.884;2023-02-28T07:46:55;33.37;;;21.43;;
56136;SDS011;42008;52.934;5.884;2023-02-28T07:49:21;34.17;;;21.97;;
56136;SDS011;42008;52.934;5.884;2023-02-28T07:51:46;30.83;;;20.07;;
56136;SDS011;42008;52.934;5.884;2023-02-28T07:54:12;35.67;;;22.27;;
56136;SDS011;42008;52.934;5.884;2023-02-28T07:56:37;30.00;;;20.40;;
56136;SDS011;42008;52.934;5.884;2023-02-28T07:59:03;28.67;;;19.80;;
56136;SDS011;42008;52.934;5.884;2023-02-28T08:01:28;27.77;;;19.27;;
56136;SDS011;42008;52.934;5.884;2023-02-28T08:03:54;32.23;;;19.87;;
56136;SDS011;42008;52.934;5.884;2023-02-28T08:06:22;29.67;;;20.07;;
56136;SDS011;42008;52.934;5.884;2023-02-28T08:08:49;32.37;;;21.73;;
56136;SDS011;42008;52.934;5.884;2023-02-28T08:11:15;30.43;;;19.70;;
56136;SDS011;42008;52.934;5.884;2023-02-28T08:13:42;29.10;;;20.60;;
56136;SDS011;42008;52.934;5.884;2023-02-28T08:16:08;30.40;;;20.63;;
56136;SDS011;42008;52.934;5.884;2023-02-28T08:18:35;35.80;;;21.87;;
56136;SDS011;42008;52.934;5.884;2023-02-28T08:21:08;29.53;;;20.83;;
56136;SDS011;42008;52.934;5.884;2023-02-28T08:23:37;31.60;;;21.27;;
56136;SDS011;42008;52.934;5.884;2023-02-28T08:26:03;35.23;;;23.23;;
56136;SDS011;42008;52.934;5.884;2023-02-28T08:28:30;24.47;;;17.33;;
56136;SDS011;42008;52.934;5.884;2023-02-28T08:30:55;19.50;;;15.20;;
56136;SDS011;42008;52.934;5.884;2023-02-28T08:33:21;20.73;;;15.60;;
56136;SDS011;42008;52.934;5.884;2023-02-28T08:35:47;21.47;;;14.30;;
56136;SDS011;42008;52.934;5.884;2023-02-28T08:38:13;20.00;;;14.13;;
56136;SDS011;42008;52.934;5.884;2023-02-28T08:40:38;20.53;;;13.73;;
56136;SDS011;42008;52.934;5.884;2023-02-28T08:43:05;22.40;;;15.23;;
56136;SDS011;42008;52.934;5.884;2023-02-28T08:45:30;18.17;;;13.80;;
56136;SDS011;42008;52.934;5.884;2023-02-28T08:47:56;22.37;;;13.90;;
56136;SDS011;42008;52.934;5.884;2023-02-28T08:50:22;16.00;;;12.83;;
56136;SDS011;42008;52.934;5.884;2023-02-28T08:52:47;18.80;;;14.33;;
56136;SDS011;42008;52.934;5.884;2023-02-28T08:55:13;21.07;;;15.37;;
56136;SDS011;42008;52.934;5.884;2023-02-28T08:57:39;20.40;;;13.77;;
56136;SDS011;42008;52.934;5.884;2023-02-28T09:00:04;17.67;;;13.10;;
56136;SDS011;42008;52.934;5.884;2023-02-28T09:02:31;19.43;;;12.73;;
56136;SDS011;42008;52.934;5.884;2023-02-28T09:04:56;16.33;;;11.83;;
56136;SDS011;42008;52.934;5.884;2023-02-28T09:07:23;16.87;;;12.90;;
56136;SDS011;42008;52.934;5.884;2023-02-28T09:09:49;16.77;;;12.10;;
56136;SDS011;42008;52.934;5.884;2023-02-28T09:12:21;17.70;;;12.53;;
56136;SDS011;42008;52.934;5.884;2023-02-28T09:14:51;14.07;;;11.13;;
56136;SDS011;42008;52.934;5.884;2023-02-28T09:17:17;15.13;;;12.23;;
56136;SDS011;42008;52.934;5.884;2023-02-28T09:19:44;14.37;;;10.73;;
56136;SDS011;42008;52.934;5.884;2023-02-28T09:22:09;14.37;;;10.47;;
56136;SDS011;42008;52.934;5.884;2023-02-28T09:24:38;17.80;;;11.67;;
56136;SDS011;42008;52.934;5.884;2023-02-28T09:27:04;14.67;;;11.20;;
56136;SDS011;42008;52.934;5.884;2023-02-28T09:29:30;14.07;;;9.27;;
56136;SDS011;42008;52.934;5.884;2023-02-28T09:31:57;12.50;;;10.03;;
56136;SDS011;42008;52.934;5.884;2023-02-28T09:34:23;12.00;;;8.87;;
56136;SDS011;42008;52.934;5.884;2023-02-28T09:36:49;15.13;;;9.57;;
56136;SDS011;42008;52.934;5.884;2023-02-28T09:39:19;11.97;;;8.93;;
56136;SDS011;42008;52.934;5.884;2023-02-28T09:41:47;11.40;;;8.50;;
56136;SDS011;42008;52.934;5.884;2023-02-28T09:46:57;12.93;;;9.10;;
56136;SDS011;42008;52.934;5.884;2023-02-28T09:49:47;14.40;;;10.47;;
56136;SDS011;42008;52.934;5.884;2023-02-28T09:52:20;15.37;;;9.47;;
56136;SDS011;42008;52.934;5.884;2023-02-28T09:54:51;13.13;;;9.53;;
56136;SDS011;42008;52.934;5.884;2023-02-28T09:57:32;13.53;;;9.13;;
56136;SDS011;42008;52.934;5.884;2023-02-28T10:02:52;14.70;;;10.23;;
56136;SDS011;42008;52.934;5.884;2023-02-28T10:05:37;14.20;;;9.37;;
56136;SDS011;42008;52.934;5.884;2023-02-28T10:08:19;17.30;;;9.93;;
56136;SDS011;42008;52.934;5.884;2023-02-28T10:11:00;17.10;;;10.32;;
56136;SDS011;42008;52.934;5.884;2023-02-28T10:16:02;76.20;;;33.20;;
56136;SDS011;42008;52.934;5.884;2023-02-28T10:19:06;78.60;;;33.07;;
56136;SDS011;42008;52.934;5.884;2023-02-28T10:21:30;72.70;;;33.73;;
56136;SDS011;42008;52.934;5.884;2023-02-28T10:24:04;61.97;;;26.83;;
56136;SDS011;42008;52.934;5.884;2023-02-28T10:26:41;73.50;;;31.47;;
56136;SDS011;42008;52.934;5.884;2023-02-28T10:29:10;20.67;;;9.57;;
56136;SDS011;42008;52.934;5.884;2023-02-28T10:31:36;30.67;;;15.87;;
56136;SDS011;42008;52.934;5.884;2023-02-28T10:34:02;17.63;;;9.00;;
56136;SDS011;42008;52.934;5.884;2023-02-28T10:36:29;16.60;;;7.73;;
56136;SDS011;42008;52.934;5.884;2023-02-28T10:38:54;36.97;;;17.77;;
56136;SDS011;42008;52.934;5.884;2023-02-28T10:41:27;26.70;;;13.27;;
56136;SDS011;42008;52.934;5.884;2023-02-28T10:44:11;12.90;;;6.63;;
56136;SDS011;42008;52.934;5.884;2023-02-28T10:46:39;11.73;;;6.60;;
56136;SDS011;42008;52.934;5.884;2023-02-28T10:49:11;10.03;;;5.90;;
56136;SDS011;42008;52.934;5.884;2023-02-28T10:51:40;19.47;;;9.50;;
56136;SDS011;42008;52.934;5.884;2023-02-28T10:54:14;16.17;;;8.77;;
56136;SDS011;42008;52.934;5.884;2023-02-28T10:56:43;17.67;;;8.43;;
56136;SDS011;42008;52.934;5.884;2023-02-28T11:01:44;12.45;;;5.80;;
56136;SDS011;42008;52.934;5.884;2023-02-28T11:04:31;13.20;;;6.57;;
56136;SDS011;42008;52.934;5.884;2023-02-28T11:07:23;13.77;;;6.77;;
56136;SDS011;42008;52.934;5.884;2023-02-28T11:09:54;15.90;;;7.70;;
56136;SDS011;42008;52.934;5.884;2023-02-28T11:15:00;14.07;;;7.23;;
56136;SDS011;42008;52.934;5.884;2023-02-28T11:17:30;18.20;;;8.13;;
56136;SDS011;42008;52.934;5.884;2023-02-28T11:20:04;15.97;;;8.73;;
56136;SDS011;42008;52.934;5.884;2023-02-28T11:22:37;18.03;;;8.53;;
56136;SDS011;42008;52.934;5.884;2023-02-28T11:25:09;19.80;;;9.60;;
56136;SDS011;42008;52.934;5.884;2023-02-28T11:27:51;18.03;;;9.17;;
56136;SDS011;42008;52.934;5.884;2023-02-28T11:33:20;13.20;;;6.63;;
56136;SDS011;42008;52.934;5.884;2023-02-28T11:35:46;18.00;;;8.80;;
56136;SDS011;42008;52.934;5.884;2023-02-28T11:38:14;23.93;;;12.40;;
56136;SDS011;42008;52.934;5.884;2023-02-28T11:46:33;13.97;;;6.07;;
56136;SDS011;42008;52.934;5.884;2023-02-28T11:54:26;8.85;;;5.40;;
56136;SDS011;42008;52.934;5.884;2023-02-28T11:58:14;8.93;;;5.03;;
56136;SDS011;42008;52.934;5.884;2023-02-28T12:11:23;5.60;;;3.50;;
56136;SDS011;42008;52.934;5.884;2023-02-28T12:20:14;5.57;;;3.30;;
56136;SDS011;42008;52.934;5.884;2023-02-28T12:25:47;6.87;;;3.67;;
56136;SDS011;42008;52.934;5.884;2023-02-28T12:28:16;7.13;;;3.57;;
56136;SDS011;42008;52.934;5.884;2023-02-28T12:31:01;8.47;;;4.43;;
56136;SDS011;42008;52.934;5.884;2023-02-28T12:33:40;12.60;;;4.20;;
56136;SDS011;42008;52.934;5.884;2023-02-28T12:36:11;7.00;;;3.85;;
56136;SDS011;42008;52.934;5.884;2023-02-28T12:38:45;6.97;;;3.70;;
56136;SDS011;42008;52.934;5.884;2023-02-28T12:41:16;8.03;;;3.93;;
56136;SDS011;42008;52.934;5.884;2023-02-28T12:43:44;7.97;;;4.00;;
56136;SDS011;42008;52.934;5.884;2023-02-28T12:46:41;6.23;;;3.47;;
56136;SDS011;42008;52.934;5.884;2023-02-28T12:49:08;5.63;;;3.30;;
56136;SDS011;42008;52.934;5.884;2023-02-28T12:51:56;8.20;;;3.30;;
56136;SDS011;42008;52.934;5.884;2023-02-28T12:57:11;5.23;;;2.80;;
56136;SDS011;42008;52.934;5.884;2023-02-28T12:59:59;7.17;;;2.60;;
56136;SDS011;42008;52.934;5.884;2023-02-28T13:10:48;5.87;;;2.77;;
56136;SDS011;42008;52.934;5.884;2023-02-28T13:13:20;4.97;;;2.33;;
56136;SDS011;42008;52.934;5.884;2023-02-28T13:16:01;6.80;;;3.00;;
56136;SDS011;42008;52.934;5.884;2023-02-28T13:18:36;5.97;;;2.83;;
56136;SDS011;42008;52.934;5.884;2023-02-28T13:21:09;4.70;;;2.63;;
56136;SDS011;42008;52.934;5.884;2023-02-28T13:23:57;4.63;;;2.70;;
56136;SDS011;42008;52.934;5.884;2023-02-28T13:34:27;4.83;;;2.70;;
56136;SDS011;42008;52.934;5.884;2023-02-28T13:37:20;4.87;;;2.90;;
56136;SDS011;42008;52.934;5.884;2023-02-28T13:39:48;5.70;;;3.03;;
56136;SDS011;42008;52.934;5.884;2023-02-28T13:50:41;4.87;;;2.83;;
56136;SDS011;42008;52.934;5.884;2023-02-28T13:55:45;6.68;;;2.70;;
56136;SDS011;42008;52.934;5.884;2023-02-28T14:01:01;4.65;;;2.95;;
56136;SDS011;42008;52.934;5.884;2023-02-28T14:03:51;5.50;;;3.08;;
56136;SDS011;42008;52.934;5.884;2023-02-28T14:06:33;4.07;;;2.60;;
56136;SDS011;42008;52.934;5.884;2023-02-28T14:09:03;5.78;;;2.80;;
56136;SDS011;42008;52.934;5.884;2023-02-28T14:11:46;4.57;;;2.60;;
56136;SDS011;42008;52.934;5.884;2023-02-28T14:16:59;4.25;;;2.75;;
56136;SDS011;42008;52.934;5.884;2023-02-28T14:19:27;5.53;;;3.10;;
56136;SDS011;42008;52.934;5.884;2023-02-28T14:30:26;4.30;;;2.50;;
56136;SDS011;42008;52.934;5.884;2023-02-28T14:33:05;5.45;;;3.08;;
56136;SDS011;42008;52.934;5.884;2023-02-28T14:38:30;4.22;;;2.70;;
56136;SDS011;42008;52.934;5.884;2023-02-28T14:41:00;6.37;;;2.93;;
56136;SDS011;42008;52.934;5.884;2023-02-28T14:43:29;6.82;;;4.13;;
56136;SDS011;42008;52.934;5.884;2023-02-28T14:45:59;4.15;;;2.60;;
56136;SDS011;42008;52.934;5.884;2023-02-28T14:50:56;7.03;;;3.75;;
56136;SDS011;42008;52.934;5.884;2023-02-28T14:53:25;5.57;;;2.60;;
56136;SDS011;42008;52.934;5.884;2023-02-28T14:55:53;6.78;;;4.20;;
56136;SDS011;42008;52.934;5.884;2023-02-28T14:58:24;5.43;;;3.33;;
56136;SDS011;42008;52.934;5.884;2023-02-28T15:00:56;5.28;;;3.30;;
56136;SDS011;42008;52.934;5.884;2023-02-28T15:03:30;4.85;;;2.95;;
56136;SDS011;42008;52.934;5.884;2023-02-28T15:05:59;4.55;;;2.70;;
56136;SDS011;42008;52.934;5.884;2023-02-28T15:08:45;4.93;;;2.55;;
56136;SDS011;42008;52.934;5.884;2023-02-28T15:11:13;6.68;;;3.03;;
56136;SDS011;42008;52.934;5.884;2023-02-28T15:13:53;4.18;;;2.80;;
56136;SDS011;42008;52.934;5.884;2023-02-28T15:19:00;7.03;;;2.90;;
56136;SDS011;42008;52.934;5.884;2023-02-28T15:21:38;4.70;;;2.70;;
56136;SDS011;42008;52.934;5.884;2023-02-28T15:24:15;5.25;;;2.70;;
56136;SDS011;42008;52.934;5.884;2023-02-28T15:26:46;4.22;;;2.50;;
56136;SDS011;42008;52.934;5.884;2023-02-28T15:29:19;3.78;;;2.35;;
56136;SDS011;42008;52.934;5.884;2023-02-28T15:31:50;5.55;;;2.35;;
56136;SDS011;42008;52.934;5.884;2023-02-28T15:34:37;5.60;;;2.40;;
56136;SDS011;42008;52.934;5.884;2023-02-28T15:39:56;8.02;;;3.00;;
56136;SDS011;42008;52.934;5.884;2023-02-28T15:42:27;4.75;;;2.70;;
56136;SDS011;42008;52.934;5.884;2023-02-28T15:44:53;5.70;;;2.70;;
56136;SDS011;42008;52.934;5.884;2023-02-28T15:47:20;4.97;;;2.60;;
56136;SDS011;42008;52.934;5.884;2023-02-28T15:49:49;4.15;;;2.50;;
56136;SDS011;42008;52.934;5.884;2023-02-28T15:52:21;4.88;;;2.80;;
56136;SDS011;42008;52.934;5.884;2023-02-28T15:54:53;6.40;;;2.90;;
56136;SDS011;42008;52.934;5.884;2023-02-28T15:57:20;5.95;;;2.85;;
56136;SDS011;42008;52.934;5.884;2023-02-28T15:59:50;4.10;;;2.60;;
56136;SDS011;42008;52.934;5.884;2023-02-28T16:02:20;6.65;;;3.13;;
56136;SDS011;42008;52.934;5.884;2023-02-28T16:07:34;5.57;;;2.90;;
56136;SDS011;42008;52.934;5.884;2023-02-28T16:10:04;5.30;;;3.13;;
56136;SDS011;42008;52.934;5.884;2023-02-28T16:12:32;6.35;;;3.45;;
56136;SDS011;42008;52.934;5.884;2023-02-28T16:15:00;4.85;;;2.80;;
56136;SDS011;42008;52.934;5.884;2023-02-28T16:17:31;5.75;;;3.05;;
56136;SDS011;42008;52.934;5.884;2023-02-28T16:19:59;7.65;;;3.38;;
56136;SDS011;42008;52.934;5.884;2023-02-28T16:22:25;5.85;;;3.50;;
56136;SDS011;42008;52.934;5.884;2023-02-28T16:24:51;7.45;;;3.08;;
56136;SDS011;42008;52.934;5.884;2023-02-28T16:27:21;5.65;;;3.05;;
56136;SDS011;42008;52.934;5.884;2023-02-28T16:29:54;6.20;;;2.85;;
56136;SDS011;42008;52.934;5.884;2023-02-28T16:32:20;6.13;;;3.00;;
56136;SDS011;42008;52.934;5.884;2023-02-28T16:34:46;5.97;;;3.10;;
56136;SDS011;42008;52.934;5.884;2023-02-28T16:37:16;5.22;;;3.13;;
56136;SDS011;42008;52.934;5.884;2023-02-28T16:39:43;5.50;;;3.20;;
56136;SDS011;42008;52.934;5.884;2023-02-28T16:42:15;5.28;;;3.35;;
56136;SDS011;42008;52.934;5.884;2023-02-28T16:44:47;9.82;;;3.90;;
56136;SDS011;42008;52.934;5.884;2023-02-28T16:47:13;5.55;;;3.50;;
56136;SDS011;42008;52.934;5.884;2023-02-28T16:49:39;6.43;;;3.28;;
56136;SDS011;42008;52.934;5.884;2023-02-28T16:52:07;5.22;;;3.22;;
56136;SDS011;42008;52.934;5.884;2023-02-28T16:54:33;6.60;;;3.63;;
56136;SDS011;42008;52.934;5.884;2023-02-28T16:56:58;8.25;;;4.43;;
56136;SDS011;42008;52.934;5.884;2023-02-28T16:59:24;6.15;;;4.18;;
56136;SDS011;42008;52.934;5.884;2023-02-28T17:01:52;9.57;;;5.82;;
56136;SDS011;42008;52.934;5.884;2023-02-28T17:04:18;7.07;;;4.35;;
56136;SDS011;42008;52.934;5.884;2023-02-28T17:06:44;6.07;;;3.57;;
56136;SDS011;42008;52.934;5.884;2023-02-28T17:09:14;6.27;;;4.10;;
56136;SDS011;42008;52.934;5.884;2023-02-28T17:11:42;6.50;;;3.73;;